createdAt,value
2023-02-13T00:04:37.246Z,12.13
2023-02-13T00:09:34.689Z,11.90
2023-02-13T00:14:34.759Z,13.13
2023-02-13T00:19:34.834Z,13.05
2023-02-13T00:24:32.135Z,11.57
2023-02-13T00:29:29.427Z,12.32
2023-02-13T00:34:26.743Z,13.20
2023-02-13T00:39:33.045Z,12.93
2023-02-13T00:44:36.867Z,13.20
2023-02-13T00:49:40.084Z,12.82
2023-02-13T00:54:37.283Z,11.05
2023-02-13T00:59:34.999Z,12.18
2023-02-13T01:04:35.330Z,11.95
2023-02-13T01:09:35.780Z,11.48
2023-02-13T01:14:36.438Z,14.18
2023-02-13T01:24:51.552Z,14.70
2023-02-13T01:29:49.453Z,14.23
2023-02-13T01:34:49.819Z,16.23
2023-02-13T01:39:59.256Z,14.80
2023-02-13T01:45:24.267Z,14.68
2023-02-13T01:50:58.118Z,15.40
2023-02-13T01:56:06.314Z,13.98
2023-02-13T02:01:04.053Z,12.48
2023-02-13T02:06:09.215Z,12.23
2023-02-13T02:11:20.437Z,10.98
2023-02-13T02:16:17.706Z,11.27
2023-02-13T02:21:46.051Z,10.95
2023-02-13T02:26:52.137Z,9.45
2023-02-13T02:32:29.949Z,9.63
2023-02-13T02:37:54.892Z,10.73
2023-02-13T02:43:29.032Z,9.50
2023-02-13T02:49:21.420Z,9.00
2023-02-13T02:54:40.622Z,10.90
2023-02-13T02:59:58.515Z,10.20
2023-02-13T03:05:34.571Z,9.40
2023-02-13T03:10:53.556Z,9.40
2023-02-13T03:16:49.758Z,9.50
2023-02-13T03:22:29.208Z,9.48
2023-02-13T03:28:18.241Z,9.93
2023-02-13T03:33:41.863Z,9.18
2023-02-13T03:38:44.984Z,9.05
2023-02-13T03:44:03.458Z,9.00
2023-02-13T03:49:23.551Z,8.20
2023-02-13T03:55:10.253Z,10.20
2023-02-13T04:00:15.565Z,9.35
2023-02-13T04:05:20.472Z,8.45
2023-02-13T04:10:27.990Z,8.55
2023-02-13T04:15:28.254Z,8.85
2023-02-13T04:20:28.760Z,9.20
2023-02-13T04:25:26.274Z,9.32
2023-02-13T04:30:23.574Z,9.35
2023-02-13T04:35:24.252Z,8.50
2023-02-13T04:40:27.147Z,8.55
2023-02-13T04:45:31.142Z,7.57
2023-02-13T04:50:31.776Z,7.60
2023-02-13T04:55:35.169Z,8.52
2023-02-13T05:00:45.280Z,9.10
2023-02-13T05:05:52.795Z,9.27
2023-02-13T05:10:53.128Z,9.35
2023-02-13T05:15:56.879Z,8.90
2023-02-13T05:21:14.066Z,8.50
2023-02-13T05:26:16.926Z,9.15
2023-02-13T05:31:14.548Z,8.93
2023-02-13T05:36:20.367Z,9.05
2023-02-13T05:41:20.601Z,11.27
2023-02-13T05:46:21.036Z,11.20
2023-02-13T05:51:28.161Z,10.48
2023-02-13T05:56:28.233Z,10.20
2023-02-13T06:06:31.697Z,12.17
2023-02-13T06:11:31.920Z,12.32
2023-02-13T06:16:34.968Z,12.88
2023-02-13T06:21:38.098Z,11.73
2023-02-13T06:26:38.746Z,15.55
2023-02-13T06:31:39.003Z,15.80
2023-02-13T06:36:37.970Z,12.85
2023-02-13T06:41:35.150Z,14.68
2023-02-13T06:46:35.390Z,19.20
2023-02-13T06:51:32.725Z,13.25
2023-02-13T06:56:30.045Z,12.82
2023-02-13T07:01:30.376Z,19.55
2023-02-13T07:06:30.307Z,16.35
2023-02-13T07:11:42.894Z,14.88
2023-02-13T07:16:42.966Z,18.50
2023-02-13T07:21:40.384Z,14.52
2023-02-13T07:26:37.572Z,13.43
2023-02-13T07:31:44.916Z,12.02
2023-02-13T07:36:42.204Z,12.55
2023-02-13T07:41:43.629Z,10.73
2023-02-13T07:46:40.987Z,8.88
2023-02-13T07:51:38.291Z,8.10
2023-02-13T07:56:35.503Z,8.95
2023-02-13T08:01:32.757Z,8.00
2023-02-13T08:06:29.989Z,7.60
2023-02-13T08:11:51.841Z,8.68
2023-02-13T08:16:49.622Z,7.43
2023-02-13T08:21:46.865Z,8.45
2023-02-13T08:26:44.292Z,7.38
2023-02-13T08:31:41.987Z,8.10
2023-02-13T08:36:39.542Z,9.00
2023-02-13T08:41:36.963Z,9.43
2023-02-13T08:46:34.197Z,7.45
2023-02-13T08:51:31.722Z,8.57
2023-02-13T08:56:32.171Z,8.77
2023-02-13T09:06:27.109Z,9.32
2023-02-13T09:11:24.349Z,7.95
2023-02-13T09:16:22.011Z,7.32
2023-02-13T09:21:23.867Z,6.00
2023-02-13T09:26:21.565Z,6.50
2023-02-13T09:31:21.616Z,6.32
2023-02-13T09:36:21.987Z,5.50
2023-02-13T09:41:27.561Z,5.72
2023-02-13T09:46:37.495Z,5.75
2023-02-13T09:51:35.859Z,5.35
2023-02-13T09:56:55.079Z,5.60
2023-02-13T10:01:56.390Z,5.20
2023-02-13T10:07:04.226Z,5.78
2023-02-13T10:12:23.426Z,5.93
2023-02-13T10:17:35.735Z,5.95
2023-02-13T10:22:40.535Z,5.60
2023-02-13T10:28:13.512Z,5.53
2023-02-13T10:33:21.225Z,5.07
2023-02-13T10:38:21.191Z,6.53
2023-02-13T10:43:22.650Z,5.45
2023-02-13T10:48:28.809Z,5.65
2023-02-13T10:53:47.983Z,5.88
2023-02-13T10:59:24.118Z,4.35
2023-02-13T11:04:21.826Z,5.07
2023-02-13T11:09:20.052Z,4.43
2023-02-13T11:14:24.477Z,4.68
2023-02-13T11:19:30.870Z,5.30
2023-02-13T11:24:29.907Z,5.25
2023-02-13T11:29:32.360Z,5.28
2023-02-13T11:34:32.017Z,5.20
2023-02-13T11:39:29.314Z,5.05
2023-02-13T11:44:28.462Z,4.50
2023-02-13T11:49:35.493Z,4.90
2023-02-13T11:54:37.048Z,4.68
2023-02-13T11:59:42.735Z,5.72
2023-02-13T12:04:40.923Z,5.57
2023-02-13T12:09:40.474Z,5.57
2023-02-13T12:14:44.980Z,5.23
2023-02-13T12:19:45.289Z,5.88
2023-02-13T12:24:58.648Z,6.13
2023-02-13T12:30:28.099Z,5.88
2023-02-13T12:35:28.286Z,6.78
2023-02-13T12:46:04.300Z,6.65
2023-02-13T12:51:16.577Z,7.80
2023-02-13T12:56:13.768Z,7.38
2023-02-13T13:01:25.419Z,7.15
2023-02-13T13:06:33.633Z,6.43
2023-02-13T13:11:34.667Z,7.03
2023-02-13T13:16:43.142Z,7.13
2023-02-13T13:22:00.384Z,6.03
2023-02-13T13:26:59.681Z,6.50
2023-02-13T13:32:02.624Z,7.00
2023-02-13T13:37:37.866Z,8.15
2023-02-13T13:42:49.834Z,8.45
2023-02-13T13:48:15.762Z,8.10
2023-02-13T13:53:16.264Z,6.47
2023-02-13T13:58:24.140Z,6.80
2023-02-13T14:03:35.351Z,6.47
2023-02-13T14:08:41.837Z,6.50
2023-02-13T14:13:40.758Z,6.78
2023-02-13T14:18:44.315Z,6.03
2023-02-13T14:23:50.236Z,6.35
2023-02-13T14:28:50.318Z,7.47
2023-02-13T14:33:54.558Z,7.80
2023-02-13T14:38:59.849Z,6.90
2023-02-13T14:43:57.340Z,5.90
2023-02-13T14:49:20.751Z,6.82
2023-02-13T14:54:44.107Z,7.18
2023-02-13T14:59:47.691Z,6.18
2023-02-13T15:04:53.910Z,6.68
2023-02-13T15:10:01.324Z,6.00
2023-02-13T15:15:01.551Z,5.90
2023-02-13T15:20:07.596Z,6.68
2023-02-13T15:25:07.627Z,5.57
2023-02-13T15:30:24.426Z,6.38
2023-02-13T15:35:25.095Z,6.32
2023-02-13T15:40:32.264Z,6.25
2023-02-13T15:45:31.063Z,6.95
2023-02-13T15:50:33.529Z,6.40
2023-02-13T15:55:33.951Z,7.82
2023-02-13T16:00:37.391Z,7.82
2023-02-13T16:05:41.341Z,7.57
2023-02-13T16:10:39.403Z,7.25
2023-02-13T16:15:37.754Z,7.93
2023-02-13T16:20:36.864Z,8.45
2023-02-13T16:25:38.591Z,7.90
2023-02-13T16:30:42.026Z,7.40
2023-02-13T16:35:44.848Z,10.68
2023-02-13T16:40:43.999Z,9.02
2023-02-13T16:45:41.221Z,9.15
2023-02-13T16:50:38.617Z,11.25
2023-02-13T16:55:36.394Z,8.07
2023-02-13T17:00:33.768Z,7.90
2023-02-13T17:05:31.278Z,9.30
2023-02-13T17:10:34.015Z,10.50
2023-02-13T17:15:32.401Z,8.63
2023-02-13T17:20:32.207Z,9.65
2023-02-13T17:25:36.295Z,11.43
2023-02-13T17:30:34.028Z,12.82
2023-02-13T17:35:31.410Z,12.15
2023-02-13T17:40:32.922Z,10.38
2023-02-13T17:45:41.550Z,11.82
2023-02-13T17:50:39.591Z,11.23
2023-02-13T17:55:39.870Z,14.70
2023-02-13T18:00:43.400Z,16.15
2023-02-13T18:05:41.600Z,19.83
2023-02-13T18:10:42.761Z,15.60
2023-02-13T18:15:45.226Z,13.05
2023-02-13T18:20:43.109Z,12.63
2023-02-13T18:25:46.692Z,10.90
2023-02-13T18:30:50.121Z,10.90
2023-02-13T18:35:50.233Z,12.30
2023-02-13T18:40:47.828Z,12.43
2023-02-13T18:45:46.129Z,11.27
2023-02-13T18:50:43.847Z,12.38
2023-02-13T18:55:42.355Z,12.05
2023-02-13T19:00:39.686Z,13.15
2023-02-13T19:05:40.985Z,11.07
2023-02-13T19:10:38.410Z,12.63
2023-02-13T19:15:36.990Z,11.95
2023-02-13T19:20:34.569Z,14.07
2023-02-13T19:25:31.723Z,12.70
2023-02-13T19:30:29.289Z,12.15
2023-02-13T19:35:26.502Z,11.70
2023-02-13T19:40:23.677Z,11.82
2023-02-13T19:45:21.465Z,9.63
2023-02-13T19:50:18.892Z,9.55
2023-02-13T19:55:16.132Z,11.15
2023-02-13T20:00:13.952Z,13.38
2023-02-13T20:05:11.404Z,12.77
2023-02-13T20:10:12.453Z,13.70
2023-02-13T20:15:09.907Z,16.02
2023-02-13T20:20:07.966Z,15.05
2023-02-13T20:25:05.905Z,14.52
2023-02-13T20:30:06.884Z,15.45
2023-02-13T20:35:05.834Z,16.08
2023-02-13T20:40:06.503Z,15.30
2023-02-13T20:45:04.787Z,13.45
2023-02-13T20:50:02.199Z,13.30
2023-02-13T20:55:01.543Z,13.05
2023-02-13T20:59:58.815Z,12.93
2023-02-13T21:04:56.706Z,13.07
2023-02-13T21:09:54.092Z,13.30
2023-02-13T21:14:51.403Z,14.23
2023-02-13T21:19:48.668Z,16.13
2023-02-13T21:24:45.905Z,14.90
2023-02-13T21:29:43.115Z,14.15
2023-02-13T21:34:40.423Z,15.88
2023-02-13T21:39:37.776Z,16.20
2023-02-13T21:44:35.264Z,16.17
2023-02-13T21:49:32.407Z,16.52
2023-02-13T21:54:29.706Z,14.90
2023-02-13T21:59:27.064Z,13.95
2023-02-13T22:04:24.348Z,13.35
2023-02-13T22:09:22.384Z,13.65
2023-02-13T22:14:20.083Z,14.73
2023-02-13T22:19:18.178Z,12.88
2023-02-13T22:24:15.565Z,13.07
2023-02-13T22:29:14.887Z,14.70
2023-02-13T22:34:13.637Z,14.52
2023-02-13T22:39:11.890Z,13.45
2023-02-13T22:44:09.110Z,13.63
2023-02-13T22:49:07.013Z,12.80
2023-02-13T22:54:05.696Z,12.88
2023-02-13T22:59:03.007Z,14.57
2023-02-13T23:04:00.526Z,12.30
2023-02-13T23:08:58.117Z,15.27
2023-02-13T23:13:55.800Z,15.38
2023-02-13T23:18:56.981Z,13.93
2023-02-13T23:23:54.433Z,15.43
2023-02-13T23:28:51.948Z,15.88
2023-02-13T23:33:49.169Z,15.45
2023-02-13T23:38:46.755Z,14.45
2023-02-13T23:43:43.911Z,13.48
2023-02-13T23:48:41.257Z,14.25
2023-02-13T23:53:38.682Z,13.57
2023-02-13T23:58:36.183Z,13.23
